NCAR-RAP Real-Time Weather Data

Output produced by METARs form (12 August 2020  18:39 UTC)
found at http://weather.rap.ucar.edu/surface/
 
KLND 121753Z AUTO VRB04KT 10SM CLR 30/01 A3001 RMK AO2 SLP077 T03000011 10300 20139 56004
KLND 121653Z AUTO 02008KT 10SM CLR 27/01 A3002 RMK AO2 SLP084 T02670006
KLND 121553Z AUTO 01004KT 10SM CLR 22/03 A3001 RMK AO2 SLP087 T02220028
KLND 121453Z AUTO 04005KT 10SM CLR 21/02 A3002 RMK AO2 SLP092 T02110022 58002
KLND 121353Z AUTO 00000KT 10SM CLR 17/02 A3002 RMK AO2 SLP097 T01720022 TSNO
KLND 121253Z AUTO 15003KT 10SM CLR 16/00 A3003 RMK AO2 SLP103 T01560000 TSNO
KLND 121153Z AUTO 00000KT 10SM CLR 16/M01 A3003 RMK AO2 SLP097 T01611006 10228 20156 53003 TSNO
KLND 121053Z AUTO 03004KT 10SM CLR 17/M01 A3002 RMK AO2 SLP090 T01721006 TSNO
KLND 120953Z AUTO 00000KT 10SM CLR 19/M01 A3002 RMK AO2 SLP088 T01941011 TSNO
KLND 120853Z AUTO 10SM CLR 21/M01 A3001 RMK AO2 SLP087 T02061006 55004
KLND 120753Z AUTO 23013KT 10SM CLR 22/M01 A3001 RMK AO2 SLP076 T02221006
KLND 120653Z AUTO 23012KT 10SM CLR 22/01 A3003 RMK AO2 SLP084 T02220006 403330139
KLND 120553Z AUTO 23015KT 10SM CLR 23/01 A3003 RMK AO2 SLP085 T02280011 10272 20228 51007
KLND 120453Z AUTO 22014KT 10SM CLR 23/01 A3003 RMK AO2 PK WND 22030/0354 SLP090 T02280011
KLND 120353Z AUTO 22019G29KT 10SM CLR 24/02 A3004 RMK AO2 PK WND 22030/0302 SLP095 T02390017
KLND 120253Z AUTO 22016G28KT 10SM CLR 24/02 A3000 RMK AO2 PK WND 23034/0154 SLP086 T02440022 53004
KLND 120153Z AUTO 22022G35KT 10SM CLR 25/03 A2999 RMK AO2 PK WND 21046/0055 SLP084 T02500028
KLND 120053Z AUTO 21026G48KT 10SM CLR 24/04 A2999 RMK AO2 PK WND 19056/0017 SLP090 T02440039
KLND 112353Z AUTO 21032G41KT 10SM CLR 27/01 A2999 RMK AO2 PK WND 21041/2351 LTG DSNT SW SLP081 T02720011 10333 20272 55006
KLND 112253Z AUTO 27017G33KT 10SM CLR 29/M01 A2998 RMK AO2 PK WND 28033/2246 SLP077 T02891011